createdAt,value
2019-03-26T00:02:14.144Z,45.02
2019-03-26T00:04:44.077Z,45.04
2019-03-26T00:07:13.959Z,45.03
2019-03-26T00:09:43.916Z,44.95
2019-03-26T00:12:13.713Z,44.89
2019-03-26T00:14:43.533Z,44.82
2019-03-26T00:17:13.536Z,44.71
2019-03-26T00:19:43.354Z,44.70
2019-03-26T00:22:13.127Z,44.72
2019-03-26T00:24:43.081Z,44.70
2019-03-26T00:27:12.969Z,44.69
2019-03-26T00:29:42.756Z,44.56
2019-03-26T00:32:13.639Z,44.56
2019-03-26T00:34:43.453Z,44.54
2019-03-26T00:37:14.587Z,44.49
2019-03-26T00:39:44.371Z,44.47
2019-03-26T00:42:14.219Z,44.48
2019-03-26T00:44:44.239Z,44.48
2019-03-26T00:47:13.994Z,44.55
2019-03-26T00:49:43.865Z,44.65
2019-03-26T00:52:13.948Z,44.77
2019-03-26T00:54:43.752Z,44.84
2019-03-26T00:57:13.601Z,44.90
2019-03-26T00:59:43.723Z,44.96
2019-03-26T01:02:13.618Z,45.03
2019-03-26T01:04:43.420Z,45.10
2019-03-26T01:07:13.473Z,45.23
2019-03-26T01:09:43.261Z,45.21
2019-03-26T01:12:13.093Z,45.27
2019-03-26T01:14:43.113Z,45.37
2019-03-26T01:17:12.900Z,45.40
2019-03-26T01:19:42.778Z,45.30
2019-03-26T01:22:12.847Z,45.34
2019-03-26T01:24:42.639Z,45.39
2019-03-26T01:27:12.650Z,45.36
2019-03-26T01:29:42.590Z,45.27
2019-03-26T01:32:12.372Z,45.19
2019-03-26T01:34:46.258Z,45.18
2019-03-26T01:37:13.864Z,45.09
2019-03-26T01:39:43.699Z,44.96
2019-03-26T01:42:13.526Z,44.92
2019-03-26T01:44:43.538Z,44.85
2019-03-26T01:47:13.282Z,44.78
2019-03-26T01:49:43.408Z,44.70
2019-03-26T01:52:13.456Z,44.66
2019-03-26T01:54:43.276Z,44.66
2019-03-26T01:57:13.095Z,44.57
2019-03-26T01:59:42.998Z,44.51
2019-03-26T02:02:12.843Z,44.41
2019-03-26T02:04:42.856Z,44.45
2019-03-26T02:07:12.949Z,44.46
2019-03-26T02:09:42.727Z,44.53
2019-03-26T02:12:13.730Z,44.52
2019-03-26T02:14:43.612Z,44.58
2019-03-26T02:17:13.388Z,44.65
2019-03-26T02:19:43.240Z,44.67
2019-03-26T02:22:13.253Z,44.62
2019-03-26T02:24:43.035Z,44.67
2019-03-26T02:27:12.943Z,44.69
2019-03-26T02:29:42.996Z,44.62
2019-03-26T02:32:12.780Z,44.62
2019-03-26T02:34:42.644Z,44.56
2019-03-26T02:37:12.489Z,44.57
2019-03-26T02:39:42.261Z,44.57
2019-03-26T02:42:12.186Z,44.56
2019-03-26T02:44:42.115Z,44.60
2019-03-26T02:47:11.876Z,44.64
2019-03-26T02:49:41.682Z,44.62
2019-03-26T02:52:11.810Z,44.67
2019-03-26T02:54:42.983Z,44.70
2019-03-26T02:57:13.175Z,44.75
2019-03-26T02:59:42.957Z,44.88
2019-03-26T03:02:12.736Z,44.93
2019-03-26T03:04:42.814Z,45.02
2019-03-26T03:07:12.752Z,45.15
2019-03-26T03:09:42.506Z,45.26
2019-03-26T03:12:12.585Z,45.39
2019-03-26T03:14:42.369Z,45.51
2019-03-26T03:17:12.159Z,45.51
2019-03-26T03:19:42.226Z,45.51
2019-03-26T03:22:11.993Z,45.56
2019-03-26T03:24:41.760Z,45.59
2019-03-26T03:27:11.661Z,45.60
2019-03-26T03:29:41.459Z,45.64
2019-03-26T03:32:11.339Z,45.61
2019-03-26T03:34:41.488Z,45.65
2019-03-26T03:37:11.236Z,45.64
2019-03-26T03:39:41.017Z,45.68
2019-03-26T03:42:11.036Z,45.73
2019-03-26T03:44:40.825Z,45.79
2019-03-26T03:47:12.998Z,45.86
2019-03-26T03:49:43.338Z,45.92
2019-03-26T03:52:15.620Z,45.94
2019-03-26T03:54:46.715Z,46.11
2019-03-26T03:57:18.394Z,46.11
2019-03-26T03:59:48.812Z,46.19
2019-03-26T04:02:18.584Z,46.35
2019-03-26T04:04:48.497Z,46.43
2019-03-26T04:07:18.285Z,46.50
2019-03-26T04:09:48.143Z,46.54
2019-03-26T04:12:19.485Z,46.59
2019-03-26T04:14:49.462Z,46.64
2019-03-26T04:17:19.238Z,46.63
2019-03-26T04:19:49.195Z,46.61
2019-03-26T04:22:18.972Z,46.53
2019-03-26T04:24:48.778Z,46.46
2019-03-26T04:27:18.792Z,46.48
2019-03-26T04:29:48.582Z,46.46
2019-03-26T04:32:18.409Z,46.48
2019-03-26T04:34:48.419Z,46.38
2019-03-26T04:37:18.198Z,46.32
2019-03-26T04:39:48.078Z,46.22
2019-03-26T04:42:17.972Z,46.14
2019-03-26T04:44:47.830Z,46.13
2019-03-26T04:47:17.426Z,46.09
2019-03-26T04:49:47.269Z,46.08
2019-03-26T04:52:17.532Z,45.99
2019-03-26T04:54:47.334Z,45.92
2019-03-26T04:57:17.489Z,45.87
2019-03-26T04:59:47.486Z,45.78
2019-03-26T05:02:17.374Z,45.71
2019-03-26T05:04:47.194Z,45.72
2019-03-26T05:07:17.149Z,45.68
2019-03-26T05:09:46.933Z,45.65
2019-03-26T05:12:16.850Z,45.65
2019-03-26T05:14:46.755Z,45.62
2019-03-26T05:17:16.537Z,45.55
2019-03-26T05:19:46.387Z,45.55
2019-03-26T05:22:24.055Z,45.50
2019-03-26T05:24:47.904Z,45.49
2019-03-26T05:27:20.630Z,45.45
2019-03-26T05:29:50.417Z,45.43
2019-03-26T05:32:20.199Z,45.44
2019-03-26T05:34:50.112Z,45.44
2019-03-26T05:37:19.888Z,45.40
2019-03-26T05:39:49.694Z,45.41
2019-03-26T05:42:19.710Z,45.41
2019-03-26T05:44:49.510Z,45.34
2019-03-26T05:47:19.256Z,45.32
2019-03-26T05:49:49.259Z,45.35
2019-03-26T05:52:19.033Z,45.30
2019-03-26T05:54:48.878Z,45.37
2019-03-26T05:57:18.835Z,45.69
2019-03-26T05:59:48.608Z,45.96
2019-03-26T06:02:20.048Z,46.22
2019-03-26T06:04:52.224Z,46.39
2019-03-26T06:07:22.085Z,46.64
2019-03-26T06:09:51.881Z,47.06
2019-03-26T06:12:21.740Z,47.38
2019-03-26T06:14:51.868Z,47.73
2019-03-26T06:17:21.644Z,48.04
2019-03-26T06:19:51.491Z,48.28
2019-03-26T06:22:21.434Z,48.71
2019-03-26T06:24:51.239Z,49.10
2019-03-26T06:27:21.123Z,49.56
2019-03-26T06:29:51.040Z,50.32
2019-03-26T06:32:20.812Z,50.65
2019-03-26T06:34:50.660Z,50.90
2019-03-26T06:37:21.811Z,51.11
2019-03-26T06:39:51.602Z,51.31
2019-03-26T06:42:21.436Z,51.59
2019-03-26T06:44:51.325Z,51.68
2019-03-26T06:47:21.533Z,51.84
2019-03-26T06:49:51.389Z,52.24
2019-03-26T06:52:21.255Z,52.51
2019-03-26T06:54:51.933Z,52.01
2019-03-26T06:57:34.657Z,51.84
2019-03-26T06:59:53.408Z,51.96
2019-03-26T07:02:23.418Z,51.88
2019-03-26T07:04:53.369Z,51.88
2019-03-26T07:07:31.373Z,51.99
2019-03-26T07:09:54.922Z,52.22
2019-03-26T07:12:24.754Z,52.50
2019-03-26T07:14:54.540Z,52.66
2019-03-26T07:17:24.755Z,53.12
2019-03-26T07:19:54.720Z,53.34
2019-03-26T07:22:24.586Z,53.38
2019-03-26T07:24:54.541Z,53.46
2019-03-26T07:27:24.361Z,53.50
2019-03-26T07:29:54.174Z,53.72
2019-03-26T07:32:24.484Z,53.95
2019-03-26T07:34:54.300Z,54.05
2019-03-26T07:37:24.079Z,54.05
2019-03-26T07:39:54.178Z,54.20
2019-03-26T07:42:24.022Z,54.76
2019-03-26T07:44:53.815Z,55.39
2019-03-26T07:47:23.678Z,56.29
2019-03-26T07:49:54.998Z,58.32
2019-03-26T07:52:24.888Z,60.00
2019-03-26T07:54:57.749Z,58.87
2019-03-26T07:57:27.759Z,58.48
2019-03-26T07:59:59.486Z,57.79
2019-03-26T08:02:29.678Z,57.33
2019-03-26T08:04:59.553Z,57.29
2019-03-26T08:07:29.320Z,57.17
2019-03-26T08:09:59.312Z,56.95
2019-03-26T08:12:29.204Z,56.85
2019-03-26T08:14:58.991Z,56.42
2019-03-26T08:17:30.895Z,56.21
2019-03-26T08:20:01.124Z,56.15
2019-03-26T08:22:30.910Z,55.98
2019-03-26T08:25:01.138Z,56.01
2019-03-26T08:27:30.968Z,55.90
2019-03-26T08:30:00.853Z,56.06
2019-03-26T08:32:30.879Z,56.16
2019-03-26T08:35:00.715Z,55.59
2019-03-26T08:37:30.527Z,55.12
2019-03-26T08:40:00.413Z,54.83
2019-03-26T08:42:30.224Z,55.96
2019-03-26T08:45:00.009Z,57.58
2019-03-26T08:47:30.055Z,57.19
2019-03-26T08:49:59.962Z,55.92
2019-03-26T08:52:31.117Z,55.05
2019-03-26T08:55:04.138Z,54.41
2019-03-26T08:57:32.874Z,52.69
2019-03-26T09:00:02.652Z,50.85
2019-03-26T09:02:32.457Z,47.75
2019-03-26T09:05:02.546Z,47.65
2019-03-26T09:07:32.514Z,46.46
2019-03-26T09:10:02.447Z,45.61
2019-03-26T09:12:32.354Z,45.45
2019-03-26T09:15:02.176Z,45.01
2019-03-26T09:17:33.174Z,45.20
2019-03-26T09:20:03.072Z,45.60
2019-03-26T09:22:32.967Z,45.74
2019-03-26T09:25:03.089Z,45.84
2019-03-26T09:27:32.961Z,46.22
2019-03-26T09:30:02.820Z,46.14
2019-03-26T09:32:32.839Z,46.05
2019-03-26T09:35:02.648Z,45.54
2019-03-26T09:37:32.433Z,45.82
2019-03-26T09:40:02.481Z,46.06
2019-03-26T09:42:32.308Z,47.31
2019-03-26T09:45:02.119Z,47.29
2019-03-26T09:47:32.193Z,46.61
2019-03-26T09:50:02.225Z,45.20
2019-03-26T09:52:32.019Z,43.62
2019-03-26T09:55:02.427Z,42.06
2019-03-26T09:57:33.468Z,42.04
2019-03-26T10:00:03.482Z,42.36
2019-03-26T10:02:33.273Z,42.68
2019-03-26T10:05:03.250Z,42.97
2019-03-26T10:07:33.696Z,43.58
2019-03-26T10:10:03.663Z,43.59
2019-03-26T10:12:33.608Z,43.74
2019-03-26T10:15:03.589Z,43.84
2019-03-26T10:17:33.436Z,43.99
2019-03-26T10:20:03.366Z,44.15
2019-03-26T10:22:35.607Z,44.34
2019-03-26T10:25:10.655Z,44.73
2019-03-26T10:27:39.365Z,45.17
2019-03-26T10:30:10.373Z,45.42
2019-03-26T10:32:41.393Z,45.49
2019-03-26T10:35:12.385Z,45.65
2019-03-26T10:37:42.461Z,46.49
2019-03-26T10:40:16.123Z,46.95
2019-03-26T10:42:46.182Z,46.68
2019-03-26T10:45:16.171Z,45.61
2019-03-26T10:47:46.347Z,45.08
2019-03-26T10:50:16.435Z,44.18
2019-03-26T10:52:46.297Z,43.80
2019-03-26T10:55:16.134Z,43.13
2019-03-26T10:57:46.177Z,42.11
2019-03-26T11:00:16.296Z,41.74
2019-03-26T11:02:46.214Z,41.65
2019-03-26T11:05:16.216Z,41.80
2019-03-26T11:07:46.137Z,41.98
2019-03-26T11:10:16.292Z,42.32
2019-03-26T11:12:46.814Z,42.61
2019-03-26T11:15:16.935Z,42.37
2019-03-26T11:17:47.015Z,42.47
2019-03-26T11:20:17.464Z,42.95
2019-03-26T11:22:47.384Z,43.14
2019-03-26T11:25:18.089Z,43.22
2019-03-26T11:27:47.999Z,43.59
2019-03-26T11:30:18.121Z,43.79
2019-03-26T11:32:48.273Z,44.06
2019-03-26T11:35:18.160Z,43.80
2019-03-26T11:37:47.960Z,44.04
2019-03-26T11:40:18.324Z,44.55
2019-03-26T11:42:48.105Z,43.98
2019-03-26T11:45:18.188Z,43.49
2019-03-26T11:47:48.537Z,43.12
2019-03-26T11:50:18.905Z,42.87
2019-03-26T11:52:48.690Z,42.86
2019-03-26T11:55:21.563Z,42.71
2019-03-26T11:57:50.089Z,42.64
2019-03-26T12:00:25.467Z,42.65
2019-03-26T12:02:55.276Z,42.67
2019-03-26T12:05:25.274Z,42.78
2019-03-26T12:07:55.317Z,43.15
2019-03-26T12:10:25.211Z,43.52
2019-03-26T12:12:54.985Z,44.08
2019-03-26T12:15:24.917Z,44.81
2019-03-26T12:17:54.767Z,45.37
2019-03-26T12:20:24.744Z,45.95
2019-03-26T12:22:54.743Z,46.05
2019-03-26T12:25:24.532Z,45.60
2019-03-26T12:27:54.723Z,45.91
2019-03-26T12:30:37.529Z,45.41
2019-03-26T12:33:08.521Z,45.00
2019-03-26T12:35:38.668Z,43.87
2019-03-26T12:38:27.340Z,42.41
2019-03-26T12:40:57.449Z,41.27
2019-03-26T12:43:27.257Z,40.00
2019-03-26T12:45:57.195Z,38.71
2019-03-26T12:48:27.187Z,38.05
2019-03-26T12:50:57.203Z,37.01
2019-03-26T12:53:27.129Z,36.29
2019-03-26T12:55:57.045Z,35.77
2019-03-26T12:58:32.130Z,35.33
2019-03-26T13:00:58.717Z,34.90
2019-03-26T13:03:28.786Z,34.82
2019-03-26T13:05:58.600Z,34.38
2019-03-26T13:08:28.594Z,33.75
2019-03-26T13:10:58.959Z,33.16
2019-03-26T13:13:29.517Z,32.80
2019-03-26T13:15:59.422Z,32.20
2019-03-26T13:18:29.255Z,32.42
2019-03-26T13:20:59.138Z,32.27
2019-03-26T13:23:28.954Z,33.15
2019-03-26T13:25:58.730Z,34.06
2019-03-26T13:28:28.862Z,34.93
2019-03-26T13:30:58.741Z,35.71
2019-03-26T13:33:29.403Z,36.42
2019-03-26T13:35:59.200Z,37.03
2019-03-26T13:38:29.043Z,37.61
2019-03-26T13:40:59.046Z,38.00
2019-03-26T13:43:28.822Z,38.47
2019-03-26T13:45:58.630Z,39.05
2019-03-26T13:48:28.581Z,39.59
2019-03-26T13:51:00.178Z,40.10
2019-03-26T13:53:30.410Z,40.66
2019-03-26T13:56:00.176Z,41.14
2019-03-26T13:58:29.988Z,41.44
2019-03-26T14:01:00.220Z,41.66
2019-03-26T14:03:30.368Z,41.93
2019-03-26T14:06:00.148Z,42.08
2019-03-26T14:08:30.262Z,41.93
2019-03-26T14:11:00.026Z,41.53
2019-03-26T14:13:29.924Z,41.73
2019-03-26T14:15:59.865Z,42.17
2019-03-26T14:18:29.961Z,42.54
2019-03-26T14:20:59.745Z,42.97
2019-03-26T14:23:29.662Z,43.24
2019-03-26T14:25:59.501Z,43.42
2019-03-26T14:28:29.282Z,43.53
2019-03-26T14:30:59.206Z,43.65
2019-03-26T14:33:29.186Z,43.81
2019-03-26T14:35:59.120Z,42.77
2019-03-26T14:38:28.943Z,42.54
2019-03-26T14:40:58.810Z,42.81
2019-03-26T14:43:28.579Z,43.09
2019-03-26T14:45:58.517Z,43.53
2019-03-26T14:48:28.570Z,43.86
2019-03-26T14:50:58.358Z,44.15
2019-03-26T14:53:28.282Z,44.23
2019-03-26T14:55:59.435Z,44.17
2019-03-26T14:58:29.320Z,42.29
2019-03-26T15:00:59.890Z,40.38
2019-03-26T15:03:30.273Z,38.60
2019-03-26T15:06:00.064Z,37.34
2019-03-26T15:08:30.007Z,37.13
2019-03-26T15:11:07.943Z,36.57
2019-03-26T15:13:31.623Z,37.02
2019-03-26T15:16:01.612Z,39.01
2019-03-26T15:18:31.459Z,40.09
2019-03-26T15:21:01.255Z,41.23
2019-03-26T15:23:31.357Z,42.35
2019-03-26T15:26:01.123Z,43.41
2019-03-26T15:28:32.214Z,44.21
2019-03-26T15:31:02.117Z,44.77
2019-03-26T15:33:33.838Z,45.10
2019-03-26T15:36:03.557Z,45.45
2019-03-26T15:38:33.469Z,45.57
2019-03-26T15:41:03.250Z,45.71
2019-03-26T15:43:33.174Z,45.76
2019-03-26T15:46:03.035Z,45.77
2019-03-26T15:48:32.828Z,45.85
2019-03-26T15:51:04.640Z,46.00
2019-03-26T15:53:34.477Z,46.09
2019-03-26T15:56:04.311Z,46.25
2019-03-26T15:58:34.845Z,46.40
2019-03-26T16:01:04.701Z,46.63
2019-03-26T16:03:34.535Z,46.69
2019-03-26T16:06:04.882Z,45.63
2019-03-26T16:08:36.116Z,44.81
2019-03-26T16:11:06.236Z,44.44
2019-03-26T16:13:36.115Z,44.06
2019-03-26T16:16:05.953Z,43.64
2019-03-26T16:18:35.826Z,43.24
2019-03-26T16:21:07.739Z,42.97
2019-03-26T16:23:37.791Z,42.79
2019-03-26T16:26:07.679Z,42.69
2019-03-26T16:28:37.828Z,42.46
2019-03-26T16:31:07.980Z,42.41
2019-03-26T16:33:37.977Z,42.41
2019-03-26T16:36:07.747Z,42.35
2019-03-26T16:38:39.236Z,42.15
2019-03-26T16:41:09.010Z,42.12
2019-03-26T16:43:38.813Z,42.35
2019-03-26T16:46:08.998Z,42.69
2019-03-26T16:48:38.804Z,42.96
2019-03-26T16:51:08.599Z,43.32
2019-03-26T16:53:38.514Z,43.77
2019-03-26T16:56:08.305Z,44.19
2019-03-26T16:58:38.119Z,44.68
2019-03-26T17:01:08.165Z,45.09
2019-03-26T17:03:37.971Z,45.41
2019-03-26T17:06:07.778Z,45.93
2019-03-26T17:08:37.896Z,46.44
2019-03-26T17:11:07.718Z,46.96
2019-03-26T17:13:38.685Z,47.26
2019-03-26T17:16:08.613Z,47.60
2019-03-26T17:18:38.493Z,47.91
2019-03-26T17:21:08.361Z,48.25
2019-03-26T17:23:38.281Z,48.57
2019-03-26T17:26:08.123Z,48.71
2019-03-26T17:28:38.237Z,48.83
2019-03-26T17:31:08.131Z,48.97
2019-03-26T17:33:38.036Z,49.19
2019-03-26T17:36:07.827Z,49.46
2019-03-26T17:38:37.946Z,49.70
2019-03-26T17:41:07.722Z,49.95
2019-03-26T17:43:38.287Z,50.08
2019-03-26T17:46:08.465Z,50.35
2019-03-26T17:48:38.586Z,50.64
2019-03-26T17:51:08.584Z,50.76
2019-03-26T17:53:38.730Z,50.81
2019-03-26T17:56:08.515Z,50.89
2019-03-26T17:58:38.345Z,51.16
2019-03-26T18:01:08.865Z,51.22
2019-03-26T18:03:38.638Z,51.28
2019-03-26T18:06:08.506Z,51.38
2019-03-26T18:08:38.629Z,51.57
2019-03-26T18:11:08.414Z,51.66
2019-03-26T18:13:39.480Z,51.73
2019-03-26T18:16:09.354Z,51.95
2019-03-26T18:18:39.216Z,52.38
2019-03-26T18:21:10.214Z,52.51
2019-03-26T18:23:40.051Z,52.56
2019-03-26T18:26:09.837Z,52.66
2019-03-26T18:28:39.732Z,52.87
2019-03-26T18:31:09.633Z,52.70
2019-03-26T18:33:40.125Z,52.77
2019-03-26T18:36:10.093Z,52.79
2019-03-26T18:38:39.917Z,52.79
2019-03-26T18:41:10.769Z,52.80
2019-03-26T18:43:40.536Z,52.82
2019-03-26T18:46:10.424Z,52.81
2019-03-26T18:48:41.669Z,52.86
2019-03-26T18:51:11.638Z,52.84
2019-03-26T18:53:41.548Z,52.87
2019-03-26T18:56:11.332Z,53.03
2019-03-26T18:58:41.222Z,53.14
2019-03-26T19:01:11.213Z,53.35
2019-03-26T19:03:40.998Z,53.42
2019-03-26T19:06:10.971Z,53.54
2019-03-26T19:08:40.925Z,53.91
2019-03-26T19:11:10.721Z,54.05
2019-03-26T19:13:40.705Z,54.29
2019-03-26T19:16:10.536Z,54.45
2019-03-26T19:18:40.321Z,54.62
2019-03-26T19:21:10.317Z,54.80
2019-03-26T19:23:40.178Z,54.62
2019-03-26T19:26:12.418Z,54.55
2019-03-26T19:28:42.293Z,54.63
2019-03-26T19:31:12.197Z,54.55
2019-03-26T19:33:42.070Z,54.53
2019-03-26T19:36:11.872Z,54.52
2019-03-26T19:38:41.715Z,54.58
2019-03-26T19:41:11.736Z,54.66
2019-03-26T19:43:41.628Z,54.56
2019-03-26T19:46:11.897Z,54.60
2019-03-26T19:48:41.706Z,54.61
2019-03-26T19:51:11.521Z,54.60
2019-03-26T19:53:41.659Z,54.62
2019-03-26T19:56:11.457Z,54.63
2019-03-26T19:58:43.751Z,54.63
2019-03-26T20:01:13.605Z,54.65
2019-03-26T20:03:43.389Z,54.87
2019-03-26T20:06:14.149Z,55.10
2019-03-26T20:08:44.117Z,55.27
2019-03-26T20:11:15.463Z,55.39
2019-03-26T20:13:45.452Z,55.42
2019-03-26T20:16:15.365Z,55.38
2019-03-26T20:18:45.543Z,55.32
2019-03-26T20:21:15.628Z,55.32
2019-03-26T20:23:46.132Z,55.29
2019-03-26T20:26:15.905Z,55.17
2019-03-26T20:28:45.771Z,55.14
2019-03-26T20:31:15.812Z,55.22
2019-03-26T20:33:45.593Z,55.26
2019-03-26T20:36:15.375Z,55.21
2019-03-26T20:38:45.305Z,55.27
2019-03-26T20:41:15.088Z,55.22
2019-03-26T20:43:47.356Z,55.15
2019-03-26T20:46:17.344Z,55.20
2019-03-26T20:48:47.134Z,55.14
2019-03-26T20:51:17.067Z,55.16
2019-03-26T20:53:46.885Z,55.19
2019-03-26T20:56:17.075Z,55.18
2019-03-26T20:58:47.839Z,55.22
2019-03-26T21:01:17.783Z,55.22
2019-03-26T21:03:47.773Z,55.23
2019-03-26T21:06:17.681Z,55.27
2019-03-26T21:08:47.587Z,55.34
2019-03-26T21:11:17.441Z,55.39
2019-03-26T21:13:50.942Z,55.42
2019-03-26T21:16:19.039Z,55.45
2019-03-26T21:18:49.094Z,55.45
2019-03-26T21:21:18.877Z,55.42
2019-03-26T21:23:49.057Z,55.50
2019-03-26T21:26:19.141Z,55.54
2019-03-26T21:28:50.047Z,55.61
2019-03-26T21:31:20.098Z,55.61
2019-03-26T21:33:49.920Z,55.73
2019-03-26T21:36:19.837Z,55.79
2019-03-26T21:38:49.939Z,55.82
2019-03-26T21:41:19.733Z,55.91
2019-03-26T21:43:49.579Z,55.94
2019-03-26T21:46:19.515Z,55.98
2019-03-26T21:48:49.470Z,55.99
2019-03-26T21:51:19.327Z,56.07
2019-03-26T21:53:49.432Z,56.05
2019-03-26T21:56:19.222Z,56.09
2019-03-26T21:58:48.997Z,56.06
2019-03-26T22:01:18.910Z,56.07
2019-03-26T22:03:48.698Z,56.07
2019-03-26T22:06:18.537Z,56.13
2019-03-26T22:08:48.819Z,56.17
2019-03-26T22:11:18.594Z,56.17
2019-03-26T22:13:49.487Z,56.22
2019-03-26T22:16:19.915Z,56.25
2019-03-26T22:18:50.154Z,56.29
2019-03-26T22:21:19.934Z,56.26
2019-03-26T22:23:50.196Z,56.28
2019-03-26T22:26:19.981Z,56.34
2019-03-26T22:28:49.926Z,56.30
2019-03-26T22:31:19.912Z,56.31
2019-03-26T22:33:49.688Z,56.37
2019-03-26T22:36:19.502Z,56.38
2019-03-26T22:38:49.580Z,56.45
2019-03-26T22:41:19.405Z,56.62
2019-03-26T22:43:49.272Z,56.57
2019-03-26T22:46:19.187Z,56.51
2019-03-26T22:48:49.025Z,56.67
2019-03-26T22:51:18.857Z,56.73
2019-03-26T22:53:48.758Z,56.69
2019-03-26T22:56:18.560Z,56.62
2019-03-26T22:58:48.376Z,56.58
2019-03-26T23:01:18.549Z,56.58
2019-03-26T23:03:48.326Z,56.47
2019-03-26T23:06:18.166Z,56.37
2019-03-26T23:08:48.105Z,56.29
2019-03-26T23:11:17.905Z,56.23
2019-03-26T23:13:47.763Z,56.23
2019-03-26T23:16:17.831Z,56.22
2019-03-26T23:18:47.695Z,56.22
2019-03-26T23:21:19.931Z,56.17
2019-03-26T23:23:49.329Z,56.17
2019-03-26T23:26:19.366Z,56.13
2019-03-26T23:28:49.187Z,56.10
2019-03-26T23:31:19.253Z,56.03
2019-03-26T23:33:49.053Z,56.02
2019-03-26T23:36:18.947Z,56.02
2019-03-26T23:38:49.112Z,55.98
2019-03-26T23:41:22.168Z,55.98
2019-03-26T23:43:52.129Z,55.93
2019-03-26T23:46:21.940Z,55.91
2019-03-26T23:48:51.773Z,55.88
2019-03-26T23:51:21.752Z,55.87
2019-03-26T23:53:51.669Z,55.79
2019-03-26T23:56:21.720Z,55.79
2019-03-26T23:58:51.806Z,55.77
